sensor_id;sensor_type;location;lat;lon;timestamp;pressure;altitude;pressure_sealevel;temperature;humidity
54918;BME280;40818;50.562;7.454;2022-10-17T00:03:10;98014.25;;;14.85;100.00
54918;BME280;40818;50.562;7.454;2022-10-17T00:08:15;98022.44;;;14.81;100.00
54918;BME280;40818;50.562;7.454;2022-10-17T00:13:22;98031.13;;;14.81;100.00
54918;BME280;40818;50.562;7.454;2022-10-17T00:18:25;98031.13;;;14.81;100.00
54918;BME280;40818;50.562;7.454;2022-10-17T00:23:29;98036.47;;;14.80;100.00
54918;BME280;40818;50.562;7.454;2022-10-17T00:28:35;98035.28;;;14.73;100.00
54918;BME280;40818;50.562;7.454;2022-10-17T00:33:39;98045.72;;;14.73;100.00
54918;BME280;40818;50.562;7.454;2022-10-17T00:38:45;98055.47;;;14.71;100.00
54918;BME280;40818;50.562;7.454;2022-10-17T00:43:57;98061.41;;;14.73;100.00
54918;BME280;40818;50.562;7.454;2022-10-17T00:49:03;98062.84;;;14.77;100.00
54918;BME280;40818;50.562;7.454;2022-10-17T00:54:08;98062.84;;;14.77;100.00
54918;BME280;40818;50.562;7.454;2022-10-17T00:59:15;98057.50;;;14.67;100.00
54918;BME280;40818;50.562;7.454;2022-10-17T01:04:20;98066.50;;;14.63;100.00
54918;BME280;40818;50.562;7.454;2022-10-17T01:09:24;98058.03;;;14.59;100.00
54918;BME280;40818;50.562;7.454;2022-10-17T01:14:36;98053.19;;;14.55;100.00
54918;BME280;40818;50.562;7.454;2022-10-17T01:19:58;98057.66;;;14.52;100.00
54918;BME280;40818;50.562;7.454;2022-10-17T01:25:22;98058.03;;;14.48;100.00
54918;BME280;40818;50.562;7.454;2022-10-17T01:30:50;98059.09;;;14.45;100.00
54918;BME280;40818;50.562;7.454;2022-10-17T01:36:03;98063.84;;;14.51;100.00
54918;BME280;40818;50.562;7.454;2022-10-17T01:41:15;98053.28;;;14.53;100.00
54918;BME280;40818;50.562;7.454;2022-10-17T01:46:26;98059.22;;;14.55;100.00
54918;BME280;40818;50.562;7.454;2022-10-17T01:51:34;98059.22;;;14.55;100.00
54918;BME280;40818;50.562;7.454;2022-10-17T01:56:40;98057.34;;;14.57;100.00
54918;BME280;40818;50.562;7.454;2022-10-17T02:01:51;98052.13;;;14.57;100.00
54918;BME280;40818;50.562;7.454;2022-10-17T02:06:56;98049.50;;;14.57;100.00
54918;BME280;40818;50.562;7.454;2022-10-17T02:12:14;98044.97;;;14.59;100.00
54918;BME280;40818;50.562;7.454;2022-10-17T02:17:31;98049.25;;;14.60;100.00
54918;BME280;40818;50.562;7.454;2022-10-17T02:22:42;98041.41;;;14.60;100.00
54918;BME280;40818;50.562;7.454;2022-10-17T02:27:52;98046.44;;;14.63;100.00
54918;BME280;40818;50.562;7.454;2022-10-17T02:33:01;98042.16;;;14.62;100.00
54918;BME280;40818;50.562;7.454;2022-10-17T02:38:09;98045.63;;;14.63;100.00
54918;BME280;40818;50.562;7.454;2022-10-17T02:43:16;98044.97;;;14.59;100.00
54918;BME280;40818;50.562;7.454;2022-10-17T02:48:27;98060.88;;;14.56;100.00
54918;BME280;40818;50.562;7.454;2022-10-17T02:53:37;98058.53;;;14.53;100.00
54918;BME280;40818;50.562;7.454;2022-10-17T02:58:45;98064.56;;;14.54;100.00
54918;BME280;40818;50.562;7.454;2022-10-17T03:04:03;98065.25;;;14.56;100.00
54918;BME280;40818;50.562;7.454;2022-10-17T03:09:07;98058.97;;;14.58;100.00
54918;BME280;40818;50.562;7.454;2022-10-17T03:14:10;98064.69;;;14.52;100.00
54918;BME280;40818;50.562;7.454;2022-10-17T03:19:17;98061.81;;;14.44;100.00
54918;BME280;40818;50.562;7.454;2022-10-17T03:24:21;98062.75;;;14.43;100.00
54918;BME280;40818;50.562;7.454;2022-10-17T03:29:24;98054.09;;;14.31;100.00
54918;BME280;40818;50.562;7.454;2022-10-17T03:34:31;98057.88;;;14.27;100.00
54918;BME280;40818;50.562;7.454;2022-10-17T03:39:34;98059.75;;;14.25;100.00
54918;BME280;40818;50.562;7.454;2022-10-17T03:44:38;98049.19;;;14.26;100.00
54918;BME280;40818;50.562;7.454;2022-10-17T03:49:44;98066.09;;;14.33;100.00
54918;BME280;40818;50.562;7.454;2022-10-17T03:54:48;98061.81;;;14.32;100.00
54918;BME280;40818;50.562;7.454;2022-10-17T03:59:52;98069.66;;;14.32;100.00
54918;BME280;40818;50.562;7.454;2022-10-17T04:04:58;98074.00;;;14.32;100.00
54918;BME280;40818;50.562;7.454;2022-10-17T04:10:03;98084.13;;;14.37;100.00
54918;BME280;40818;50.562;7.454;2022-10-17T04:15:08;98095.91;;;14.42;100.00
54918;BME280;40818;50.562;7.454;2022-10-17T04:20:15;98089.63;;;14.45;100.00
54918;BME280;40818;50.562;7.454;2022-10-17T04:25:18;98089.63;;;14.45;100.00
54918;BME280;40818;50.562;7.454;2022-10-17T04:30:22;98092.09;;;14.46;100.00
54918;BME280;40818;50.562;7.454;2022-10-17T04:35:28;98082.72;;;14.44;100.00
54918;BME280;40818;50.562;7.454;2022-10-17T04:40:36;98069.66;;;14.32;100.00
54918;BME280;40818;50.562;7.454;2022-10-17T04:45:40;98067.94;;;14.20;100.00
54918;BME280;40818;50.562;7.454;2022-10-17T04:50:54;98071.00;;;14.14;100.00
54918;BME280;40818;50.562;7.454;2022-10-17T04:56:09;98080.03;;;14.10;100.00
54918;BME280;40818;50.562;7.454;2022-10-17T05:01:15;98081.91;;;14.08;100.00
54918;BME280;40818;50.562;7.454;2022-10-17T05:06:26;98101.25;;;14.05;100.00
54918;BME280;40818;50.562;7.454;2022-10-17T05:11:57;98097.84;;;14.16;100.00
54918;BME280;40818;50.562;7.454;2022-10-17T05:17:01;98082.19;;;14.16;100.00
54918;BME280;40818;50.562;7.454;2022-10-17T05:22:08;98085.03;;;14.13;100.00
54918;BME280;40818;50.562;7.454;2022-10-17T05:27:13;98083.59;;;14.09;100.00
54918;BME280;40818;50.562;7.454;2022-10-17T05:32:16;98084.72;;;13.93;100.00
54918;BME280;40818;50.562;7.454;2022-10-17T05:37:22;98097.78;;;13.93;100.00
54918;BME280;40818;50.562;7.454;2022-10-17T05:42:29;98093.50;;;13.92;100.00
54918;BME280;40818;50.562;7.454;2022-10-17T05:47:33;98080.88;;;13.86;100.00
54918;BME280;40818;50.562;7.454;2022-10-17T05:52:39;98072.06;;;13.76;100.00
54918;BME280;40818;50.562;7.454;2022-10-17T05:57:47;98068.69;;;13.62;100.00
54918;BME280;40818;50.562;7.454;2022-10-17T06:02:52;98073.59;;;13.67;100.00
54918;BME280;40818;50.562;7.454;2022-10-17T06:08:00;98081.56;;;13.77;100.00
54918;BME280;40818;50.562;7.454;2022-10-17T06:13:08;98102.50;;;13.88;100.00
54918;BME280;40818;50.562;7.454;2022-10-17T06:18:11;98097.34;;;14.11;100.00
54918;BME280;40818;50.562;7.454;2022-10-17T06:23:18;98108.59;;;14.36;100.00
54918;BME280;40818;50.562;7.454;2022-10-17T06:28:29;98105.53;;;14.53;100.00
54918;BME280;40818;50.562;7.454;2022-10-17T06:33:33;98126.66;;;14.50;100.00
54918;BME280;40818;50.562;7.454;2022-10-17T06:38:40;98139.00;;;14.48;100.00
54918;BME280;40818;50.562;7.454;2022-10-17T06:43:52;98143.59;;;14.68;100.00
54918;BME280;40818;50.562;7.454;2022-10-17T06:49:18;98140.88;;;14.70;100.00
54918;BME280;40818;50.562;7.454;2022-10-17T06:54:33;98149.53;;;14.82;100.00
54918;BME280;40818;50.562;7.454;2022-10-17T06:59:37;98157.06;;;15.09;100.00
54918;BME280;40818;50.562;7.454;2022-10-17T07:04:48;98151.69;;;15.33;100.00
54918;BME280;40818;50.562;7.454;2022-10-17T07:09:54;98161.91;;;15.48;100.00
54918;BME280;40818;50.562;7.454;2022-10-17T07:14:58;98161.63;;;15.74;100.00
54918;BME280;40818;50.562;7.454;2022-10-17T07:20:04;98168.16;;;15.91;100.00
54918;BME280;40818;50.562;7.454;2022-10-17T07:25:13;98173.28;;;15.81;100.00
54918;BME280;40818;50.562;7.454;2022-10-17T07:30:24;98178.88;;;15.87;100.00
54918;BME280;40818;50.562;7.454;2022-10-17T07:35:37;98178.03;;;15.98;100.00
54918;BME280;40818;50.562;7.454;2022-10-17T07:40:43;98183.84;;;15.91;100.00
54918;BME280;40818;50.562;7.454;2022-10-17T07:45:47;98175.19;;;15.90;100.00
54918;BME280;40818;50.562;7.454;2022-10-17T07:50:50;98184.81;;;16.01;100.00
54918;BME280;40818;50.562;7.454;2022-10-17T07:55:57;98184.53;;;16.04;100.00
54918;BME280;40818;50.562;7.454;2022-10-17T08:01:00;98196.91;;;16.13;100.00
54918;BME280;40818;50.562;7.454;2022-10-17T08:06:04;98202.22;;;16.23;100.00
54918;BME280;40818;50.562;7.454;2022-10-17T08:11:12;98196.22;;;16.32;100.00
54918;BME280;40818;50.562;7.454;2022-10-17T08:16:16;98189.78;;;16.36;100.00
54918;BME280;40818;50.562;7.454;2022-10-17T08:21:19;98202.06;;;16.36;100.00
54918;BME280;40818;50.562;7.454;2022-10-17T08:26:25;98189.34;;;16.52;100.00
54918;BME280;40818;50.562;7.454;2022-10-17T08:31:29;98196.38;;;16.52;100.00
54918;BME280;40818;50.562;7.454;2022-10-17T08:36:32;98202.00;;;16.68;100.00
54918;BME280;40818;50.562;7.454;2022-10-17T08:41:46;98198.75;;;16.76;100.00
54918;BME280;40818;50.562;7.454;2022-10-17T08:46:55;98211.19;;;16.95;100.00
54918;BME280;40818;50.562;7.454;2022-10-17T08:52:03;98213.44;;;17.00;100.00
54918;BME280;40818;50.562;7.454;2022-10-17T08:57:14;98231.03;;;17.09;100.00
54918;BME280;40818;50.562;7.454;2022-10-17T09:02:36;98231.97;;;17.08;100.00
54918;BME280;40818;50.562;7.454;2022-10-17T09:07:44;98216.69;;;17.13;100.00
54918;BME280;40818;50.562;7.454;2022-10-17T09:13:00;98237.13;;;17.19;100.00
54918;BME280;40818;50.562;7.454;2022-10-17T09:18:10;98245.28;;;17.16;100.00
54918;BME280;40818;50.562;7.454;2022-10-17T09:23:17;98246.06;;;17.38;100.00
54918;BME280;40818;50.562;7.454;2022-10-17T09:28:28;98255.81;;;17.57;100.00
54918;BME280;40818;50.562;7.454;2022-10-17T09:33:38;98260.06;;;17.89;100.00
54918;BME280;40818;50.562;7.454;2022-10-17T09:38:46;98248.09;;;17.96;100.00
54918;BME280;40818;50.562;7.454;2022-10-17T09:43:55;98239.13;;;18.08;100.00
54918;BME280;40818;50.562;7.454;2022-10-17T09:49:02;98238.72;;;18.23;100.00
54918;BME280;40818;50.562;7.454;2022-10-17T09:54:15;98249.81;;;18.36;100.00
54918;BME280;40818;50.562;7.454;2022-10-17T09:59:32;98278.88;;;18.64;100.00
54918;BME280;40818;50.562;7.454;2022-10-17T10:04:35;98275.81;;;18.49;100.00
54918;BME280;40818;50.562;7.454;2022-10-17T10:09:39;98289.56;;;18.72;100.00
54918;BME280;40818;50.562;7.454;2022-10-17T10:14:50;98286.22;;;18.90;100.00
54918;BME280;40818;50.562;7.454;2022-10-17T10:19:54;98284.03;;;18.95;100.00
54918;BME280;40818;50.562;7.454;2022-10-17T10:25:11;98291.22;;;19.13;100.00
54918;BME280;40818;50.562;7.454;2022-10-17T10:30:23;98299.06;;;19.32;100.00
54918;BME280;40818;50.562;7.454;2022-10-17T10:35:31;98309.25;;;19.55;100.00
54918;BME280;40818;50.562;7.454;2022-10-17T10:40:44;98304.38;;;19.60;100.00
54918;BME280;40818;50.562;7.454;2022-10-17T10:45:51;98307.41;;;19.65;100.00
54918;BME280;40818;50.562;7.454;2022-10-17T10:50:57;98309.22;;;19.65;100.00
54918;BME280;40818;50.562;7.454;2022-10-17T10:56:10;98292.00;;;19.80;100.00
54918;BME280;40818;50.562;7.454;2022-10-17T11:01:26;98306.88;;;20.27;100.00
54918;BME280;40818;50.562;7.454;2022-10-17T11:06:35;98304.69;;;20.68;100.00
54918;BME280;40818;50.562;7.454;2022-10-17T11:11:42;98314.16;;;20.97;100.00
54918;BME280;40818;50.562;7.454;2022-10-17T11:16:57;98324.44;;;20.82;98.25
54918;BME280;40818;50.562;7.454;2022-10-17T11:22:08;98324.78;;;20.87;100.00
54918;BME280;40818;50.562;7.454;2022-10-17T11:27:13;98339.41;;;21.18;94.90
54918;BME280;40818;50.562;7.454;2022-10-17T11:32:22;98342.97;;;21.53;98.30
54918;BME280;40818;50.562;7.454;2022-10-17T11:37:33;98356.03;;;21.36;97.67
54918;BME280;40818;50.562;7.454;2022-10-17T11:42:41;98346.19;;;21.91;92.58
54918;BME280;40818;50.562;7.454;2022-10-17T11:47:53;98357.97;;;22.05;91.96
54918;BME280;40818;50.562;7.454;2022-10-17T11:53:00;98353.72;;;22.79;92.68
54918;BME280;40818;50.562;7.454;2022-10-17T11:58:15;98362.09;;;23.26;86.98
54918;BME280;40818;50.562;7.454;2022-10-17T12:03:38;98352.28;;;23.43;87.04
54918;BME280;40818;50.562;7.454;2022-10-17T12:08:49;98347.78;;;23.10;83.83
54918;BME280;40818;50.562;7.454;2022-10-17T12:13:55;98343.84;;;22.98;88.72
54918;BME280;40818;50.562;7.454;2022-10-17T12:19:23;98355.56;;;22.79;85.58
54918;BME280;40818;50.562;7.454;2022-10-17T12:24:34;98344.75;;;22.47;87.48
54918;BME280;40818;50.562;7.454;2022-10-17T12:29:38;98342.63;;;22.59;88.96
54918;BME280;40818;50.562;7.454;2022-10-17T12:34:52;98345.84;;;21.94;88.24
54918;BME280;40818;50.562;7.454;2022-10-17T12:39:57;98345.66;;;21.61;92.72
54918;BME280;40818;50.562;7.454;2022-10-17T12:45:00;98346.81;;;20.96;93.89
54918;BME280;40818;50.562;7.454;2022-10-17T12:56:04;98349.06;;;21.09;94.47
54918;BME280;40818;50.562;7.454;2022-10-17T13:01:16;98358.94;;;21.07;94.94
54918;BME280;40818;50.562;7.454;2022-10-17T13:06:22;98373.50;;;20.93;95.38
54918;BME280;40818;50.562;7.454;2022-10-17T13:11:31;98366.13;;;20.78;95.36
54918;BME280;40818;50.562;7.454;2022-10-17T13:16:37;98375.47;;;20.73;97.26
54918;BME280;40818;50.562;7.454;2022-10-17T13:21:48;98375.63;;;20.71;97.31
54918;BME280;40818;50.562;7.454;2022-10-17T13:26:55;98382.91;;;20.77;97.78
54918;BME280;40818;50.562;7.454;2022-10-17T13:32:01;98392.41;;;20.70;96.25
54918;BME280;40818;50.562;7.454;2022-10-17T13:37:09;98403.34;;;20.75;95.55
54918;BME280;40818;50.562;7.454;2022-10-17T13:42:21;98409.22;;;20.69;94.87
54918;BME280;40818;50.562;7.454;2022-10-17T13:47:27;98409.34;;;20.68;93.84
54918;BME280;40818;50.562;7.454;2022-10-17T13:52:31;98407.97;;;20.63;94.54
54918;BME280;40818;50.562;7.454;2022-10-17T13:57:37;98421.50;;;20.51;95.46
54918;BME280;40818;50.562;7.454;2022-10-17T14:02:41;98427.75;;;20.50;95.14
54918;BME280;40818;50.562;7.454;2022-10-17T14:07:48;98422.69;;;20.38;94.11
54918;BME280;40818;50.562;7.454;2022-10-17T14:12:56;98417.41;;;20.38;94.02
54918;BME280;40818;50.562;7.454;2022-10-17T14:18:02;98429.38;;;20.33;94.18
54918;BME280;40818;50.562;7.454;2022-10-17T14:23:28;98428.41;;;20.34;94.15
54918;BME280;40818;50.562;7.454;2022-10-17T14:28:36;98426.88;;;20.31;93.92
54918;BME280;40818;50.562;7.454;2022-10-17T14:33:42;98432.16;;;20.31;94.48
54918;BME280;40818;50.562;7.454;2022-10-17T14:38:50;98431.91;;;20.24;95.20
54918;BME280;40818;50.562;7.454;2022-10-17T14:43:58;98434.56;;;20.15;93.41
54918;BME280;40818;50.562;7.454;2022-10-17T14:49:05;98428.06;;;20.09;94.32
54918;BME280;40818;50.562;7.454;2022-10-17T14:54:18;98429.66;;;19.92;94.94
54918;BME280;40818;50.562;7.454;2022-10-17T14:59:27;98437.00;;;19.88;96.42
54918;BME280;40818;50.562;7.454;2022-10-17T15:04:30;98443.81;;;19.81;97.51
54918;BME280;40818;50.562;7.454;2022-10-17T15:09:33;98451.41;;;19.74;97.14
54918;BME280;40818;50.562;7.454;2022-10-17T15:14:39;98458.91;;;19.69;98.19
54918;BME280;40818;50.562;7.454;2022-10-17T15:19:43;98463.06;;;19.62;98.40
54918;BME280;40818;50.562;7.454;2022-10-17T15:24:47;98465.03;;;19.60;98.25
54918;BME280;40818;50.562;7.454;2022-10-17T15:29:53;98464.19;;;19.59;98.48
54918;BME280;40818;50.562;7.454;2022-10-17T15:34:56;98472.66;;;19.53;98.42
54918;BME280;40818;50.562;7.454;2022-10-17T15:40:00;98475.72;;;19.49;98.79
54918;BME280;40818;50.562;7.454;2022-10-17T15:45:08;98476.94;;;19.44;98.64
54918;BME280;40818;50.562;7.454;2022-10-17T15:50:13;98482.75;;;19.38;99.09
54918;BME280;40818;50.562;7.454;2022-10-17T15:55:17;98490.94;;;19.35;100.00
54918;BME280;40818;50.562;7.454;2022-10-17T16:00:23;98499.66;;;19.26;100.00
54918;BME280;40818;50.562;7.454;2022-10-17T16:05:26;98488.00;;;19.19;100.00
54918;BME280;40818;50.562;7.454;2022-10-17T16:10:30;98490.34;;;19.12;100.00
54918;BME280;40818;50.562;7.454;2022-10-17T16:15:37;98512.78;;;19.06;100.00
54918;BME280;40818;50.562;7.454;2022-10-17T16:20:41;98521.38;;;18.99;100.00
54918;BME280;40818;50.562;7.454;2022-10-17T16:25:45;98525.38;;;18.93;100.00
54918;BME280;40818;50.562;7.454;2022-10-17T16:30:51;98534.97;;;18.83;100.00
54918;BME280;40818;50.562;7.454;2022-10-17T16:35:54;98537.88;;;18.80;100.00
54918;BME280;40818;50.562;7.454;2022-10-17T16:40:57;98544.50;;;18.74;100.00
54918;BME280;40818;50.562;7.454;2022-10-17T16:46:04;98535.47;;;18.67;100.00
54918;BME280;40818;50.562;7.454;2022-10-17T16:51:08;98532.94;;;18.55;100.00
54918;BME280;40818;50.562;7.454;2022-10-17T16:56:13;98548.13;;;18.52;100.00
54918;BME280;40818;50.562;7.454;2022-10-17T17:01:22;98553.22;;;18.43;100.00
54918;BME280;40818;50.562;7.454;2022-10-17T17:06:26;98549.44;;;18.36;100.00
54918;BME280;40818;50.562;7.454;2022-10-17T17:11:30;98548.44;;;18.28;100.00
54918;BME280;40818;50.562;7.454;2022-10-17T17:16:37;98561.00;;;18.24;100.00
54918;BME280;40818;50.562;7.454;2022-10-17T17:21:40;98552.66;;;18.19;100.00
54918;BME280;40818;50.562;7.454;2022-10-17T17:26:50;98546.97;;;18.14;100.00
54918;BME280;40818;50.562;7.454;2022-10-17T17:31:57;98545.44;;;18.11;100.00
54918;BME280;40818;50.562;7.454;2022-10-17T17:37:00;98552.84;;;18.06;100.00
54918;BME280;40818;50.562;7.454;2022-10-17T17:42:03;98556.69;;;18.02;100.00
54918;BME280;40818;50.562;7.454;2022-10-17T17:47:09;98555.16;;;17.99;100.00
54918;BME280;40818;50.562;7.454;2022-10-17T17:52:13;98560.78;;;17.95;100.00
54918;BME280;40818;50.562;7.454;2022-10-17T17:57:16;98561.16;;;17.90;100.00
54918;BME280;40818;50.562;7.454;2022-10-17T18:02:22;98567.50;;;17.87;100.00
54918;BME280;40818;50.562;7.454;2022-10-17T18:07:26;98570.47;;;17.83;100.00
54918;BME280;40818;50.562;7.454;2022-10-17T18:12:30;98587.47;;;17.79;100.00
54918;BME280;40818;50.562;7.454;2022-10-17T18:17:36;98596.56;;;17.74;100.00
54918;BME280;40818;50.562;7.454;2022-10-17T18:22:40;98599.41;;;17.71;100.00
54918;BME280;40818;50.562;7.454;2022-10-17T18:27:43;98593.72;;;17.66;100.00
54918;BME280;40818;50.562;7.454;2022-10-17T18:32:49;98596.56;;;17.63;100.00
54918;BME280;40818;50.562;7.454;2022-10-17T18:37:53;98595.16;;;17.59;100.00
54918;BME280;40818;50.562;7.454;2022-10-17T18:42:57;98604.13;;;17.56;100.00
54918;BME280;40818;50.562;7.454;2022-10-17T18:48:03;98601.84;;;17.52;100.00
54918;BME280;40818;50.562;7.454;2022-10-17T18:53:09;98602.34;;;17.46;100.00
54918;BME280;40818;50.562;7.454;2022-10-17T18:58:12;98599.25;;;17.40;100.00
54918;BME280;40818;50.562;7.454;2022-10-17T19:03:21;98614.44;;;17.37;100.00
54918;BME280;40818;50.562;7.454;2022-10-17T19:08:24;98624.44;;;17.32;100.00
54918;BME280;40818;50.562;7.454;2022-10-17T19:13:30;98621.47;;;17.25;100.00
54918;BME280;40818;50.562;7.454;2022-10-17T19:18:36;98629.59;;;17.11;100.00
54918;BME280;40818;50.562;7.454;2022-10-17T19:23:39;98623.38;;;17.12;100.00
54918;BME280;40818;50.562;7.454;2022-10-17T19:28:43;98621.84;;;17.09;100.00
54918;BME280;40818;50.562;7.454;2022-10-17T19:33:50;98621.25;;;17.05;100.00
54918;BME280;40818;50.562;7.454;2022-10-17T19:38:55;98631.75;;;17.05;100.00
54918;BME280;40818;50.562;7.454;2022-10-17T19:43:59;98633.88;;;16.89;100.00
54918;BME280;40818;50.562;7.454;2022-10-17T19:49:06;98630.28;;;16.67;100.00
54918;BME280;40818;50.562;7.454;2022-10-17T19:54:09;98629.53;;;16.77;100.00
54918;BME280;40818;50.562;7.454;2022-10-17T19:59:15;98634.53;;;16.80;100.00
54918;BME280;40818;50.562;7.454;2022-10-17T20:04:21;98646.59;;;16.82;100.00
54918;BME280;40818;50.562;7.454;2022-10-17T20:09:25;98642.19;;;16.83;100.00
54918;BME280;40818;50.562;7.454;2022-10-17T20:14:29;98639.91;;;16.78;100.00
54918;BME280;40818;50.562;7.454;2022-10-17T20:19:35;98652.44;;;16.75;100.00
54918;BME280;40818;50.562;7.454;2022-10-17T20:24:38;98653.38;;;16.73;100.00
54918;BME280;40818;50.562;7.454;2022-10-17T20:29:42;98659.69;;;16.71;100.00
54918;BME280;40818;50.562;7.454;2022-10-17T20:34:48;98654.78;;;16.55;100.00
54918;BME280;40818;50.562;7.454;2022-10-17T20:39:51;98656.75;;;16.40;100.00
54918;BME280;40818;50.562;7.454;2022-10-17T20:44:55;98647.59;;;16.46;100.00
54918;BME280;40818;50.562;7.454;2022-10-17T20:50:01;98652.69;;;16.36;100.00
54918;BME280;40818;50.562;7.454;2022-10-17T20:55:05;98661.84;;;16.30;100.00
54918;BME280;40818;50.562;7.454;2022-10-17T21:00:10;98662.25;;;16.37;100.00
54918;BME280;40818;50.562;7.454;2022-10-17T21:05:16;98662.91;;;16.28;100.00
54918;BME280;40818;50.562;7.454;2022-10-17T21:10:19;98659.94;;;16.32;100.00
54918;BME280;40818;50.562;7.454;2022-10-17T21:15:23;98660.06;;;16.31;100.00
54918;BME280;40818;50.562;7.454;2022-10-17T21:20:29;98657.56;;;16.29;100.00
54918;BME280;40818;50.562;7.454;2022-10-17T21:25:32;98667.34;;;16.27;100.00
54918;BME280;40818;50.562;7.454;2022-10-17T21:30:36;98667.75;;;16.21;100.00
54918;BME280;40818;50.562;7.454;2022-10-17T21:35:42;98683.25;;;16.24;100.00
54918;BME280;40818;50.562;7.454;2022-10-17T21:40:45;98676.13;;;16.26;100.00
54918;BME280;40818;50.562;7.454;2022-10-17T21:45:49;98668.63;;;16.21;100.00
54918;BME280;40818;50.562;7.454;2022-10-17T21:50:58;98662.41;;;16.23;100.00
54918;BME280;40818;50.562;7.454;2022-10-17T21:56:04;98672.06;;;16.22;100.00
54918;BME280;40818;50.562;7.454;2022-10-17T22:01:09;98679.69;;;16.25;100.00
54918;BME280;40818;50.562;7.454;2022-10-17T22:06:18;98684.00;;;16.26;100.00
54918;BME280;40818;50.562;7.454;2022-10-17T22:11:23;98691.03;;;16.26;100.00
54918;BME280;40818;50.562;7.454;2022-10-17T22:16:27;98690.41;;;16.22;100.00
54918;BME280;40818;50.562;7.454;2022-10-17T22:21:34;98679.53;;;16.15;100.00
54918;BME280;40818;50.562;7.454;2022-10-17T22:26:39;98686.81;;;16.12;100.00
54918;BME280;40818;50.562;7.454;2022-10-17T22:31:43;98682.25;;;16.14;100.00
54918;BME280;40818;50.562;7.454;2022-10-17T22:36:52;98678.19;;;16.10;100.00
54918;BME280;40818;50.562;7.454;2022-10-17T22:41:56;98680.25;;;15.93;100.00
54918;BME280;40818;50.562;7.454;2022-10-17T22:46:59;98689.69;;;15.96;100.00
54918;BME280;40818;50.562;7.454;2022-10-17T22:52:05;98667.69;;;15.98;100.00
54918;BME280;40818;50.562;7.454;2022-10-17T22:57:09;98666.88;;;15.85;100.00
54918;BME280;40818;50.562;7.454;2022-10-17T23:02:12;98651.81;;;15.76;100.00
54918;BME280;40818;50.562;7.454;2022-10-17T23:07:18;98648.25;;;15.77;100.00
54918;BME280;40818;50.562;7.454;2022-10-17T23:12:22;98645.53;;;15.78;100.00
54918;BME280;40818;50.562;7.454;2022-10-17T23:17:25;98638.88;;;15.61;100.00
54918;BME280;40818;50.562;7.454;2022-10-17T23:22:31;98646.81;;;15.35;100.00
54918;BME280;40818;50.562;7.454;2022-10-17T23:27:35;98652.38;;;15.18;100.00
54918;BME280;40818;50.562;7.454;2022-10-17T23:32:39;98658.06;;;15.12;100.00
54918;BME280;40818;50.562;7.454;2022-10-17T23:37:45;98644.88;;;14.88;100.00
54918;BME280;40818;50.562;7.454;2022-10-17T23:42:49;98653.78;;;14.85;100.00
54918;BME280;40818;50.562;7.454;2022-10-17T23:47:52;98642.56;;;14.96;100.00
54918;BME280;40818;50.562;7.454;2022-10-17T23:52:58;98645.69;;;15.14;100.00
54918;BME280;40818;50.562;7.454;2022-10-17T23:58:01;98651.13;;;15.24;100.00
